Rhodanus — PGBC — position and weather

sailwx.info

Track history (hours):
 
Tides and Currents Weather Stations Pressure Air Temp Water Temp Dewpoint Dewpoint Depression Visibility Wind Speed Wind Dir Waves Ship Positions

Rhodanus

Last reported at 2014-Sep-18 19:33 UTC. Time now 2014-Sep-19 07:47 UTC.
Position N 36°40' E 013°54'.

Length 89 m; draft 4.5 m.

Type: Cargo ship. MMSI: 245848000.

Date/timePositionNaut miles runAvg speedWind from/ knotsBaromVisibWave heightAir tempDewpointWater temp
2014-Sep-18 19:33N 36°40' E 013°54'8 8.1
2014-Sep-18 18:33N 36°38' E 014°03'17 8.3
2014-Sep-18 16:28N 36°32' E 014°24'9 9.2
2014-Sep-18 15:31N 36°29' E 014°34'9 8.9
2014-Sep-18 14:33N 36°28' E 014°45'  
2014-Sep-16 07:13N 37°44' E 024°17'16 9.0
2014-Sep-16 05:24N 37°55' E 024°32'65 9.4
2014-Sep-15 22:30N 38°39' E 025°33'  
2014-Sep-13 08:15N 38°29' E 025°41'7 9.6
2014-Sep-13 07:33N 38°23' E 025°39'1110.1
2014-Sep-13 06:26N 38°12' E 025°34'9 9.8
2014-Sep-13 05:33N 38°04' E 025°31'10 9.5
2014-Sep-13 04:30N 37°54' E 025°26'10 9.2
2014-Sep-13 03:21N 37°44' E 025°23'8 9.3
2014-Sep-13 02:32N 37°37' E 025°19'9 9.4
2014-Sep-13 01:33N 37°29' E 025°13'10 9.9
2014-Sep-13 00:33N 37°26' E 025°01'2 2.5
2014-Sep-12 23:34N 37°25' E 024°59'0 0.1
2014-Sep-12 22:33N 37°25' E 024°58'0 0.0
2014-Sep-12 21:33N 37°25' E 024°58'0 0.1
2014-Sep-12 20:33N 37°25' E 024°58'3 2.5
2014-Sep-12 19:33N 37°25' E 025°01'9 8.9
2014-Sep-12 18:33N 37°18' E 024°54'10 9.6
2014-Sep-12 17:33N 37°11' E 024°46'10 9.7
2014-Sep-12 16:33N 37°05' E 024°37'10 9.6
2014-Sep-12 15:33N 36°56' E 024°31'13 9.6
2014-Sep-12 14:14N 36°45' E 024°24'2 1.0
2014-Sep-12 12:08N 36°43' E 024°25'5 7.7
2014-Sep-12 11:33N 36°47' E 024°26'9 8.7
2014-Sep-12 10:33N 36°51' E 024°36'2 1.8
2014-Sep-12 09:28N 36°49' E 024°36'0 0.0
2014-Sep-12 08:28N 36°49' E 024°36'0 0.0
2014-Sep-12 07:28N 36°49' E 024°36'0 0.0
2014-Sep-12 06:28N 36°49' E 024°36'0 0.0
2014-Sep-12 05:28N 36°49' E 024°36'0 0.0
2014-Sep-12 04:28N 36°49' E 024°36'0 0.0
2014-Sep-12 03:28N 36°49' E 024°36'0 0.0
2014-Sep-12 02:28N 36°49' E 024°36'0 0.0
2014-Sep-12 01:28N 36°49' E 024°36'0 0.0
2014-Sep-12 00:22N 36°49' E 024°36'0 0.0
2014-Sep-11 23:28N 36°49' E 024°36'0 0.0
2014-Sep-11 22:28N 36°49' E 024°36'0 0.0
2014-Sep-11 21:28N 36°49' E 024°36'0 0.0
2014-Sep-11 20:28N 36°49' E 024°36'0 0.0
2014-Sep-11 19:28N 36°49' E 024°36'0 0.0
2014-Sep-11 18:28N 36°49' E 024°36'0 0.0
2014-Sep-11 17:28N 36°49' E 024°36'0 0.0
2014-Sep-11 16:28N 36°49' E 024°36'0 0.0
2014-Sep-11 15:28N 36°49' E 024°36'0 0.2
2014-Sep-11 14:33N 36°49' E 024°36'10 3.5
2014-Sep-11 11:33N 36°43' E 024°25'8 7.8
2014-Sep-11 10:32N 36°43' E 024°15'10 9.9
2014-Sep-11 09:33N 36°37' E 024°05'  
Track history (hours):
 
Tides and Currents Weather Stations Pressure Air Temp Water Temp Dewpoint Dewpoint Depression Visibility Wind Speed Wind Dir Waves Ship Positions

Rhodanus

Last reported at 2014-Sep-18 19:33 UTC. Time now 2014-Sep-19 07:47 UTC.
Position N 36°40' E 013°54'.

Length 89 m; draft 4.5 m.

Type: Cargo ship. MMSI: 245848000.

Date/timePositionNaut miles runAvg speedWind from/ knotsBaromVisibWave heightAir tempDewpointWater temp
2014-Sep-18 19:33N 36°40' E 013°54'8 8.1
2014-Sep-18 18:33N 36°38' E 014°03'17 8.3
2014-Sep-18 16:28N 36°32' E 014°24'9 9.2
2014-Sep-18 15:31N 36°29' E 014°34'9 8.9
2014-Sep-18 14:33N 36°28' E 014°45'  
2014-Sep-16 07:13N 37°44' E 024°17'16 9.0
2014-Sep-16 05:24N 37°55' E 024°32'65 9.4
2014-Sep-15 22:30N 38°39' E 025°33'  
2014-Sep-13 08:15N 38°29' E 025°41'7 9.6
2014-Sep-13 07:33N 38°23' E 025°39'1110.1
2014-Sep-13 06:26N 38°12' E 025°34'9 9.8
2014-Sep-13 05:33N 38°04' E 025°31'10 9.5
2014-Sep-13 04:30N 37°54' E 025°26'10 9.2
2014-Sep-13 03:21N 37°44' E 025°23'8 9.3
2014-Sep-13 02:32N 37°37' E 025°19'9 9.4
2014-Sep-13 01:33N 37°29' E 025°13'10 9.9
2014-Sep-13 00:33N 37°26' E 025°01'2 2.5
2014-Sep-12 23:34N 37°25' E 024°59'0 0.1
2014-Sep-12 22:33N 37°25' E 024°58'0 0.0
2014-Sep-12 21:33N 37°25' E 024°58'0 0.1
2014-Sep-12 20:33N 37°25' E 024°58'3 2.5
2014-Sep-12 19:33N 37°25' E 025°01'9 8.9
2014-Sep-12 18:33N 37°18' E 024°54'10 9.6
2014-Sep-12 17:33N 37°11' E 024°46'10 9.7
2014-Sep-12 16:33N 37°05' E 024°37'10 9.6
2014-Sep-12 15:33N 36°56' E 024°31'13 9.6
2014-Sep-12 14:14N 36°45' E 024°24'2 1.0
2014-Sep-12 12:08N 36°43' E 024°25'5 7.7
2014-Sep-12 11:33N 36°47' E 024°26'9 8.7
2014-Sep-12 10:33N 36°51' E 024°36'2 1.8
2014-Sep-12 09:28N 36°49' E 024°36'0 0.0
2014-Sep-12 08:28N 36°49' E 024°36'0 0.0
2014-Sep-12 07:28N 36°49' E 024°36'0 0.0
2014-Sep-12 06:28N 36°49' E 024°36'0 0.0
2014-Sep-12 05:28N 36°49' E 024°36'0 0.0
2014-Sep-12 04:28N 36°49' E 024°36'0 0.0
2014-Sep-12 03:28N 36°49' E 024°36'0 0.0
2014-Sep-12 02:28N 36°49' E 024°36'0 0.0
2014-Sep-12 01:28N 36°49' E 024°36'0 0.0
2014-Sep-12 00:22N 36°49' E 024°36'0 0.0
2014-Sep-11 23:28N 36°49' E 024°36'0 0.0
2014-Sep-11 22:28N 36°49' E 024°36'0 0.0
2014-Sep-11 21:28N 36°49' E 024°36'0 0.0
2014-Sep-11 20:28N 36°49' E 024°36'0 0.0
2014-Sep-11 19:28N 36°49' E 024°36'0 0.0
2014-Sep-11 18:28N 36°49' E 024°36'0 0.0
2014-Sep-11 17:28N 36°49' E 024°36'0 0.0
2014-Sep-11 16:28N 36°49' E 024°36'0 0.0
2014-Sep-11 15:28N 36°49' E 024°36'0 0.2
2014-Sep-11 14:33N 36°49' E 024°36'10 3.5
2014-Sep-11 11:33N 36°43' E 024°25'8 7.8
2014-Sep-11 10:32N 36°43' E 024°15'10 9.9
2014-Sep-11 09:33N 36°37' E 024°05'  

Dump ship's entire track history